TVS9EK LKPR-LPPD
Flight info
| Callsign | TVS9EK |
|---|---|
| Flight time | N/A |
| Altitude | 34000 |
| Route | BALTU DCT DONAD DCT OKG L984 KULOK Z715 ANELA N869 TEDGO/N0450F350 N869 NATOR DCT LUTIX DCT BENOT DCT NEMOS DCT NINTU DCT MEBAK DCT REPSI DCT LERGA DCT MINSO DCT NARAK DCT AGN DCT LATEK N995 PPN N976 NEA DCT ARDID DCT XANEL DCT GUNTI/M079F360 T25 LENSI DCT OMOBI |
| Aircraft | A320/M-SDE2E3FGIJ1RWXY/H |
Departure
| Time | 2026-05-01 10:23 |
|---|---|
| Airport | Václav Havel Airport Prague (LKPR) |
Arrival
| Time | N/A |
|---|---|
| Airport | João Paulo II Airport (LPPD) |
| Time | Latitude | Longitude | Altitude | Speed | Heading |
|---|---|---|---|---|---|
| 2026-05-01 09:41 | 50.10437 | 14.26582 | 1181 ft | 0 kts | 34° |
| 2026-05-01 10:13 | 50.10425 | 14.26570 | 1178 ft | 3 kts | 34° |
| 2026-05-01 10:13 | 50.10412 | 14.26558 | 1179 ft | 2 kts | 359° |
| 2026-05-01 10:14 | 50.10401 | 14.26561 | 1182 ft | 0 kts | 310° |
| 2026-05-01 10:17 | 50.10405 | 14.26554 | 1182 ft | 3 kts | 309° |
| 2026-05-01 10:17 | 50.10426 | 14.26502 | 1178 ft | 9 kts | 302° |
| 2026-05-01 10:18 | 50.10529 | 14.26243 | 1178 ft | 17 kts | 278° |
| 2026-05-01 10:18 | 50.10457 | 14.26136 | 1188 ft | 13 kts | 204° |
| 2026-05-01 10:18 | 50.10399 | 14.26189 | 1191 ft | 10 kts | 126° |
| 2026-05-01 10:19 | 50.10350 | 14.26287 | 1193 ft | 13 kts | 126° |
| 2026-05-01 10:19 | 50.10290 | 14.26413 | 1196 ft | 15 kts | 127° |
| 2026-05-01 10:19 | 50.10218 | 14.26561 | 1199 ft | 21 kts | 127° |
| 2026-05-01 10:20 | 50.09988 | 14.27040 | 1208 ft | 33 kts | 127° |
| 2026-05-01 10:20 | 50.09831 | 14.27351 | 1208 ft | 40 kts | 135° |
| 2026-05-01 10:20 | 50.09622 | 14.27669 | 1211 ft | 44 kts | 137° |
| 2026-05-01 10:20 | 50.09398 | 14.28014 | 1222 ft | 46 kts | 135° |
| 2026-05-01 10:21 | 50.09179 | 14.28292 | 1247 ft | 31 kts | 188° |
| 2026-05-01 10:21 | 50.09070 | 14.28119 | 1245 ft | 0 kts | 306° |
| 2026-05-01 10:22 | 50.09311 | 14.27619 | 1230 ft | 94 kts | 307° |
| 2026-05-01 10:23 | 50.09848 | 14.26497 | 1245 ft | 157 kts | 307° |
| 2026-05-01 10:23 | 50.11157 | 14.23912 | 2812 ft | 151 kts | 310° |
| 2026-05-01 10:23 | 50.11799 | 14.22583 | 3571 ft | 166 kts | 308° |
| 2026-05-01 10:24 | 50.13504 | 14.18989 | 4574 ft | 241 kts | 308° |
| 2026-05-01 10:24 | 50.15648 | 14.14523 | 6517 ft | 267 kts | 309° |
| 2026-05-01 10:25 | 50.17934 | 14.09768 | 8641 ft | 281 kts | 310° |
| 2026-05-01 10:25 | 50.20323 | 14.04783 | 10667 ft | 297 kts | 311° |
| 2026-05-01 10:26 | 50.21609 | 14.02106 | 11233 ft | 321 kts | 311° |
| 2026-05-01 10:26 | 50.22975 | 13.99223 | 11902 ft | 340 kts | 305° |
| 2026-05-01 10:26 | 50.23454 | 13.91768 | 13803 ft | 369 kts | 252° |
| 2026-05-01 10:27 | 50.20943 | 13.84653 | 15700 ft | 380 kts | 241° |
| 2026-05-01 10:27 | 50.18718 | 13.77114 | 17480 ft | 391 kts | 249° |
| 2026-05-01 10:28 | 50.17745 | 13.73123 | 18362 ft | 397 kts | 250° |
| 2026-05-01 10:28 | 50.15896 | 13.64905 | 19948 ft | 406 kts | 252° |
| 2026-05-01 10:28 | 50.14986 | 13.60717 | 20748 ft | 409 kts | 252° |
| 2026-05-01 10:29 | 50.13157 | 13.52215 | 22325 ft | 417 kts | 253° |
| 2026-05-01 10:29 | 50.12231 | 13.47904 | 23081 ft | 421 kts | 253° |
| 2026-05-01 10:30 | 50.10353 | 13.39168 | 24434 ft | 429 kts | 253° |
| 2026-05-01 10:30 | 50.08548 | 13.30308 | 25598 ft | 434 kts | 263° |
| 2026-05-01 10:31 | 50.08175 | 13.20931 | 26743 ft | 436 kts | 273° |
| 2026-05-01 10:31 | 50.08221 | 13.11425 | 27837 ft | 442 kts | 273° |
| 2026-05-01 10:32 | 50.08157 | 13.03426 | 28708 ft | 447 kts | 271° |
| 2026-05-01 10:32 | 50.08031 | 12.96987 | 29378 ft | 451 kts | 271° |
| 2026-05-01 10:32 | 50.07792 | 12.87156 | 30330 ft | 457 kts | 270° |
| 2026-05-01 10:33 | 50.07532 | 12.77254 | 31249 ft | 459 kts | 270° |
| 2026-05-01 10:33 | 50.07312 | 12.69017 | 32128 ft | 457 kts | 270° |
| 2026-05-01 10:34 | 50.07178 | 12.64090 | 32647 ft | 456 kts | 270° |
| 2026-05-01 10:34 | 50.06999 | 12.57574 | 33322 ft | 454 kts | 270° |
| 2026-05-01 10:34 | 50.06862 | 12.52673 | 33808 ft | 453 kts | 271° |
| 2026-05-01 10:35 | 50.06632 | 12.44517 | 34398 ft | 455 kts | 271° |
| 2026-05-01 10:35 | 50.06516 | 12.39611 | 34413 ft | 453 kts | 272° |
| 2026-05-01 10:35 | 50.06559 | 12.29853 | 34424 ft | 450 kts | 275° |
| 2026-05-01 10:36 | 50.06827 | 12.13696 | 34426 ft | 449 kts | 275° |
| 2026-05-01 10:37 | 50.06930 | 12.05614 | 34425 ft | 449 kts | 274° |
| 2026-05-01 10:37 | 50.07073 | 11.91027 | 34419 ft | 449 kts | 274° |
| 2026-05-01 10:38 | 50.07165 | 11.79760 | 34424 ft | 448 kts | 274° |
| 2026-05-01 10:38 | 50.07224 | 11.71709 | 34423 ft | 447 kts | 274° |
| 2026-05-01 10:39 | 50.06984 | 11.62031 | 34418 ft | 452 kts | 258° |
| 2026-05-01 10:39 | 50.05804 | 11.57491 | 34422 ft | 457 kts | 240° |
| 2026-05-01 10:39 | 50.03806 | 11.53643 | 34419 ft | 461 kts | 224° |
| 2026-05-01 10:40 | 49.98718 | 11.47534 | 34414 ft | 463 kts | 217° |
| 2026-05-01 10:40 | 49.93658 | 11.41343 | 34406 ft | 462 kts | 219° |
| 2026-05-01 10:41 | 49.88569 | 11.35436 | 34409 ft | 458 kts | 216° |
| 2026-05-01 10:42 | 49.80782 | 11.26822 | 34399 ft | 459 kts | 216° |
| 2026-05-01 10:42 | 49.75726 | 11.20802 | 34396 ft | 459 kts | 223° |
| 2026-05-01 10:43 | 49.71215 | 11.13841 | 34395 ft | 458 kts | 228° |
| 2026-05-01 10:43 | 49.67039 | 11.06918 | 34397 ft | 458 kts | 228° |
| 2026-05-01 10:44 | 49.62701 | 10.99823 | 34398 ft | 459 kts | 227° |
| 2026-05-01 10:44 | 49.58269 | 10.92726 | 34399 ft | 459 kts | 227° |
| 2026-05-01 10:45 | 49.53912 | 10.85821 | 34398 ft | 459 kts | 227° |
| 2026-05-01 10:45 | 49.49483 | 10.78826 | 34387 ft | 459 kts | 227° |
| 2026-05-01 10:46 | 49.45040 | 10.71826 | 34404 ft | 456 kts | 227° |
| 2026-05-01 10:46 | 49.40611 | 10.64861 | 34404 ft | 456 kts | 227° |
| 2026-05-01 10:47 | 49.36180 | 10.57912 | 34402 ft | 456 kts | 227° |
| 2026-05-01 10:47 | 49.31775 | 10.51021 | 34404 ft | 456 kts | 227° |
| 2026-05-01 10:48 | 49.27332 | 10.44091 | 34404 ft | 456 kts | 226° |
| 2026-05-01 10:48 | 49.22879 | 10.37165 | 34404 ft | 457 kts | 226° |
| 2026-05-01 10:49 | 49.18408 | 10.30229 | 34381 ft | 458 kts | 226° |
| 2026-05-01 10:49 | 49.14004 | 10.23296 | 34377 ft | 457 kts | 229° |
| 2026-05-01 10:50 | 49.09926 | 10.15875 | 34373 ft | 455 kts | 233° |
| 2026-05-01 10:50 | 49.06008 | 10.08310 | 34363 ft | 454 kts | 233° |
| 2026-05-01 10:51 | 49.02074 | 10.00756 | 34367 ft | 455 kts | 233° |
| 2026-05-01 10:51 | 48.98129 | 9.93290 | 34366 ft | 455 kts | 232° |
| 2026-05-01 10:52 | 48.94141 | 9.85804 | 34362 ft | 455 kts | 232° |
| 2026-05-01 10:52 | 48.90146 | 9.78329 | 34356 ft | 455 kts | 232° |
| 2026-05-01 10:53 | 48.86144 | 9.70859 | 34350 ft | 457 kts | 232° |
| 2026-05-01 10:53 | 48.82132 | 9.63386 | 34342 ft | 466 kts | 232° |
| 2026-05-01 10:54 | 48.77953 | 9.55622 | 34337 ft | 481 kts | 232° |
| 2026-05-01 10:54 | 48.73711 | 9.47774 | 34333 ft | 481 kts | 232° |
| 2026-05-01 10:55 | 48.69470 | 9.39948 | 34335 ft | 481 kts | 232° |
| 2026-05-01 10:55 | 48.65247 | 9.32177 | 34322 ft | 482 kts | 232° |
| 2026-05-01 10:56 | 48.61028 | 9.24318 | 34320 ft | 481 kts | 234° |
| 2026-05-01 10:56 | 48.57097 | 9.16135 | 34320 ft | 481 kts | 236° |
| 2026-05-01 10:57 | 48.53267 | 9.07862 | 34321 ft | 480 kts | 236° |
| 2026-05-01 10:57 | 48.49455 | 8.99707 | 34333 ft | 478 kts | 236° |
| 2026-05-01 10:58 | 48.45591 | 8.91546 | 34329 ft | 478 kts | 236° |
| 2026-05-01 10:58 | 48.41710 | 8.83407 | 34325 ft | 478 kts | 235° |
| 2026-05-01 10:59 | 48.37825 | 8.75285 | 34326 ft | 478 kts | 235° |
| 2026-05-01 10:59 | 48.33959 | 8.67223 | 34327 ft | 478 kts | 235° |
| 2026-05-01 11:00 | 48.30063 | 8.59121 | 34311 ft | 478 kts | 234° |
| 2026-05-01 11:00 | 48.26178 | 8.51065 | 34326 ft | 474 kts | 234° |
| 2026-05-01 11:01 | 48.22307 | 8.43062 | 34325 ft | 474 kts | 234° |
| 2026-05-01 11:01 | 48.18456 | 8.35123 | 34322 ft | 474 kts | 234° |
| 2026-05-01 11:01 | 48.16335 | 8.31356 | 34323 ft | 473 kts | 223° |
| 2026-05-01 11:02 | 48.13772 | 8.28263 | 34321 ft | 473 kts | 215° |
| 2026-05-01 11:02 | 48.08204 | 8.23025 | 34328 ft | 473 kts | 210° |
| 2026-05-01 11:02 | 48.05364 | 8.20521 | 34517 ft | 475 kts | 210° |
| 2026-05-01 11:03 | 48.02543 | 8.17995 | 35038 ft | 470 kts | 211° |
| 2026-05-01 11:03 | 47.99765 | 8.15449 | 35512 ft | 468 kts | 212° |
| 2026-05-01 11:03 | 47.97006 | 8.12866 | 35860 ft | 468 kts | 212° |
| 2026-05-01 11:03 | 47.94292 | 8.10290 | 36126 ft | 470 kts | 212° |
| 2026-05-01 11:04 | 47.91552 | 8.07670 | 36528 ft | 466 kts | 213° |
| 2026-05-01 11:04 | 47.86117 | 8.02461 | 36383 ft | 464 kts | 213° |
| 2026-05-01 11:05 | 47.80691 | 7.97276 | 36317 ft | 462 kts | 213° |
| 2026-05-01 11:05 | 47.75275 | 7.92123 | 36316 ft | 462 kts | 212° |
| 2026-05-01 11:06 | 47.69891 | 7.87017 | 36321 ft | 463 kts | 213° |
| 2026-05-01 11:06 | 47.64458 | 7.81879 | 36303 ft | 463 kts | 212° |
| 2026-05-01 11:07 | 47.56297 | 7.74184 | 36297 ft | 463 kts | 212° |
| 2026-05-01 11:07 | 47.50899 | 7.69109 | 36296 ft | 462 kts | 212° |
| 2026-05-01 11:08 | 47.45473 | 7.64021 | 36296 ft | 462 kts | 212° |
| 2026-05-01 11:09 | 47.37344 | 7.56421 | 36298 ft | 461 kts | 212° |
| 2026-05-01 11:09 | 47.31923 | 7.51368 | 36300 ft | 461 kts | 212° |
| 2026-05-01 11:10 | 47.23841 | 7.43857 | 36292 ft | 458 kts | 212° |
| 2026-05-01 11:10 | 47.18466 | 7.38879 | 36293 ft | 456 kts | 212° |
| 2026-05-01 11:11 | 47.13715 | 7.32787 | 36293 ft | 455 kts | 229° |
| 2026-05-01 11:11 | 47.09815 | 7.25456 | 36298 ft | 455 kts | 233° |
| 2026-05-01 11:12 | 47.06051 | 7.18059 | 36301 ft | 455 kts | 232° |
| 2026-05-01 11:12 | 47.02165 | 7.10722 | 36313 ft | 455 kts | 231° |
| 2026-05-01 11:13 | 46.98215 | 7.03475 | 36314 ft | 455 kts | 231° |
| 2026-05-01 11:13 | 46.94242 | 6.96258 | 36318 ft | 455 kts | 230° |
| 2026-05-01 11:14 | 46.90301 | 6.89113 | 36319 ft | 453 kts | 231° |
| 2026-05-01 11:14 | 46.86345 | 6.81951 | 36319 ft | 453 kts | 231° |
| 2026-05-01 11:15 | 46.82387 | 6.74798 | 36319 ft | 453 kts | 230° |
| 2026-05-01 11:15 | 46.78424 | 6.67655 | 36314 ft | 453 kts | 230° |
| 2026-05-01 11:16 | 46.74489 | 6.60580 | 36312 ft | 452 kts | 230° |
| 2026-05-01 11:16 | 46.70525 | 6.53471 | 36306 ft | 452 kts | 230° |
| 2026-05-01 11:17 | 46.66561 | 6.46381 | 36299 ft | 450 kts | 230° |
| 2026-05-01 11:17 | 46.62611 | 6.39334 | 36301 ft | 448 kts | 230° |
| 2026-05-01 11:18 | 46.58668 | 6.32317 | 36301 ft | 448 kts | 230° |
| 2026-05-01 11:18 | 46.54745 | 6.25355 | 36295 ft | 448 kts | 230° |
| 2026-05-01 11:19 | 46.50794 | 6.18360 | 36298 ft | 448 kts | 230° |
| 2026-05-01 11:19 | 46.46838 | 6.11376 | 36293 ft | 448 kts | 230° |
| 2026-05-01 11:20 | 46.42877 | 6.04398 | 36292 ft | 448 kts | 230° |
| 2026-05-01 11:20 | 46.38922 | 5.97447 | 36311 ft | 446 kts | 230° |
| 2026-05-01 11:21 | 46.35005 | 5.90582 | 36308 ft | 445 kts | 230° |
| 2026-05-01 11:21 | 46.31061 | 5.83686 | 36305 ft | 445 kts | 230° |
| 2026-05-01 11:22 | 46.27114 | 5.76803 | 36301 ft | 444 kts | 230° |
| 2026-05-01 11:22 | 46.23166 | 5.69936 | 36293 ft | 444 kts | 230° |
| 2026-05-01 11:23 | 46.19238 | 5.63123 | 36282 ft | 444 kts | 230° |
| 2026-05-01 11:23 | 46.15296 | 5.56266 | 36276 ft | 444 kts | 232° |
| 2026-05-01 11:24 | 46.11757 | 5.49012 | 36272 ft | 441 kts | 237° |
| 2026-05-01 11:25 | 46.06858 | 5.37783 | 36266 ft | 441 kts | 238° |
| 2026-05-01 11:25 | 46.01944 | 5.26668 | 36265 ft | 440 kts | 238° |
| 2026-05-01 11:26 | 45.96969 | 5.15595 | 36259 ft | 439 kts | 238° |
| 2026-05-01 11:27 | 45.93655 | 5.08253 | 36263 ft | 436 kts | 238° |
| 2026-05-01 11:27 | 45.90357 | 5.00960 | 36258 ft | 435 kts | 238° |
| 2026-05-01 11:28 | 45.87055 | 4.93677 | 36261 ft | 435 kts | 238° |
| 2026-05-01 11:28 | 45.83775 | 4.86459 | 36263 ft | 435 kts | 238° |
| 2026-05-01 11:29 | 45.78817 | 4.75585 | 36262 ft | 434 kts | 238° |
| 2026-05-01 11:30 | 45.73854 | 4.64741 | 36245 ft | 433 kts | 238° |
| 2026-05-01 11:30 | 45.70549 | 4.57544 | 36246 ft | 433 kts | 238° |
| 2026-05-01 11:31 | 45.67262 | 4.50404 | 36254 ft | 433 kts | 238° |
| 2026-05-01 11:31 | 45.63946 | 4.43217 | 36262 ft | 433 kts | 237° |
| 2026-05-01 11:32 | 45.60621 | 4.36031 | 36267 ft | 434 kts | 237° |
| 2026-05-01 11:32 | 45.57290 | 4.28850 | 36267 ft | 434 kts | 237° |
| 2026-05-01 11:33 | 45.53976 | 4.21724 | 36265 ft | 434 kts | 237° |
| 2026-05-01 11:33 | 45.50637 | 4.14560 | 36264 ft | 434 kts | 237° |
| 2026-05-01 11:34 | 45.47289 | 4.07398 | 36259 ft | 435 kts | 237° |
| 2026-05-01 11:34 | 45.43931 | 4.00231 | 36258 ft | 435 kts | 237° |
| 2026-05-01 11:35 | 45.40567 | 3.93070 | 36258 ft | 435 kts | 237° |
| 2026-05-01 11:35 | 45.37220 | 3.85961 | 36270 ft | 435 kts | 237° |
| 2026-05-01 11:36 | 45.33847 | 3.78818 | 36267 ft | 435 kts | 237° |
| 2026-05-01 11:36 | 45.30467 | 3.71678 | 36253 ft | 436 kts | 237° |
| 2026-05-01 11:37 | 45.27095 | 3.64571 | 36254 ft | 437 kts | 237° |
| 2026-05-01 11:37 | 45.23699 | 3.57430 | 36256 ft | 437 kts | 237° |
| 2026-05-01 11:38 | 45.20296 | 3.50293 | 36254 ft | 437 kts | 237° |
| 2026-05-01 11:38 | 45.16888 | 3.43166 | 36258 ft | 437 kts | 237° |
| 2026-05-01 11:39 | 45.13478 | 3.36049 | 36252 ft | 437 kts | 236° |
| 2026-05-01 11:39 | 45.10079 | 3.28974 | 36261 ft | 438 kts | 236° |
| 2026-05-01 11:40 | 45.06650 | 3.21856 | 36264 ft | 438 kts | 236° |
| 2026-05-01 11:40 | 45.03217 | 3.14746 | 36267 ft | 438 kts | 236° |
| 2026-05-01 11:41 | 44.99781 | 3.07646 | 36268 ft | 438 kts | 236° |
| 2026-05-01 11:41 | 44.96339 | 3.00553 | 36267 ft | 438 kts | 236° |
| 2026-05-01 11:42 | 44.92916 | 2.93515 | 36273 ft | 437 kts | 236° |
| 2026-05-01 11:42 | 44.89477 | 2.86463 | 36270 ft | 437 kts | 236° |